sensor_id;sensor_type;location;lat;lon;timestamp;pressure;altitude;pressure_sealevel;temperature;humidity
56514;BME280;62152;52.078;8.414;2023-06-10T00:00:19;100214.28;;;21.50;45.30
56514;BME280;62152;52.078;8.414;2023-06-10T00:04:21;100207.97;;;21.49;45.61
56514;BME280;62152;52.078;8.414;2023-06-10T00:08:22;100202.47;;;21.49;45.74
56514;BME280;62152;52.078;8.414;2023-06-10T00:12:22;100203.63;;;21.48;44.94
56514;BME280;62152;52.078;8.414;2023-06-10T00:16:23;100201.66;;;21.49;45.45
56514;BME280;62152;52.078;8.414;2023-06-10T00:20:25;100203.63;;;21.48;45.49
56514;BME280;62152;52.078;8.414;2023-06-10T00:24:26;100203.63;;;21.48;45.00
56514;BME280;62152;52.078;8.414;2023-06-10T00:28:27;100203.63;;;21.48;45.28
56514;BME280;62152;52.078;8.414;2023-06-10T00:32:30;100197.31;;;21.48;45.31
56514;BME280;62152;52.078;8.414;2023-06-10T00:36:32;100204.78;;;21.47;45.59
56514;BME280;62152;52.078;8.414;2023-06-10T00:40:39;100207.56;;;21.47;45.61
56514;BME280;62152;52.078;8.414;2023-06-10T00:44:40;100199.28;;;21.47;45.57
56514;BME280;62152;52.078;8.414;2023-06-10T00:48:43;100204.78;;;21.47;45.21
56514;BME280;62152;52.078;8.414;2023-06-10T00:52:47;100200.47;;;21.46;45.81
56514;BME280;62152;52.078;8.414;2023-06-10T00:56:48;100201.25;;;21.47;45.85
56514;BME280;62152;52.078;8.414;2023-06-10T01:00:49;100196.13;;;21.45;45.15
56514;BME280;62152;52.078;8.414;2023-06-10T01:04:50;100200.84;;;21.45;45.50
56514;BME280;62152;52.078;8.414;2023-06-10T01:08:57;100204.41;;;21.45;45.02
56514;BME280;62152;52.078;8.414;2023-06-10T01:13:09;100202.81;;;21.44;45.69
56514;BME280;62152;52.078;8.414;2023-06-10T01:17:12;100205.59;;;21.44;45.68
56514;BME280;62152;52.078;8.414;2023-06-10T01:21:19;100200.06;;;21.44;45.22
56514;BME280;62152;52.078;8.414;2023-06-10T01:25:21;100192.56;;;21.45;45.03
56514;BME280;62152;52.078;8.414;2023-06-10T01:29:30;100202.03;;;21.44;45.59
56514;BME280;62152;52.078;8.414;2023-06-10T01:33:41;100198.50;;;21.43;45.63
56514;BME280;62152;52.078;8.414;2023-06-10T01:37:48;100209.53;;;21.43;45.44
56514;BME280;62152;52.078;8.414;2023-06-10T01:41:52;100209.53;;;21.43;45.58
56514;BME280;62152;52.078;8.414;2023-06-10T01:45:54;100212.28;;;21.43;45.58
56514;BME280;62152;52.078;8.414;2023-06-10T01:49:55;100210.72;;;21.42;45.71
56514;BME280;62152;52.078;8.414;2023-06-10T01:53:57;100217.00;;;21.43;45.38
56514;BME280;62152;52.078;8.414;2023-06-10T01:57:58;100220.16;;;21.41;45.75
56514;BME280;62152;52.078;8.414;2023-06-10T02:01:59;100225.28;;;21.43;45.70
56514;BME280;62152;52.078;8.414;2023-06-10T02:05:59;100224.50;;;21.42;45.60
56514;BME280;62152;52.078;8.414;2023-06-10T02:10:02;100228.44;;;21.41;45.26
56514;BME280;62152;52.078;8.414;2023-06-10T02:14:03;100228.44;;;21.41;45.93
56514;BME280;62152;52.078;8.414;2023-06-10T02:18:05;100224.88;;;21.41;45.50
56514;BME280;62152;52.078;8.414;2023-06-10T02:22:05;100224.09;;;21.40;45.38
56514;BME280;62152;52.078;8.414;2023-06-10T02:26:07;100241.41;;;21.41;45.80
56514;BME280;62152;52.078;8.414;2023-06-10T02:30:09;100239.47;;;21.41;45.16
56514;BME280;62152;52.078;8.414;2023-06-10T02:34:11;100239.06;;;21.39;45.38
56514;BME280;62152;52.078;8.414;2023-06-10T02:38:12;100239.47;;;21.41;45.70
56514;BME280;62152;52.078;8.414;2023-06-10T02:42:14;100245.38;;;21.40;45.83
56514;BME280;62152;52.078;8.414;2023-06-10T02:46:16;100248.13;;;21.40;45.40
56514;BME280;62152;52.078;8.414;2023-06-10T02:50:18;100243.78;;;21.39;45.10
56514;BME280;62152;52.078;8.414;2023-06-10T02:54:29;100246.53;;;21.39;45.80
56514;BME280;62152;52.078;8.414;2023-06-10T02:58:32;100244.56;;;21.39;45.83
56514;BME280;62152;52.078;8.414;2023-06-10T03:02:33;100244.56;;;21.39;45.05
56514;BME280;62152;52.078;8.414;2023-06-10T03:06:34;100238.28;;;21.39;45.62
56514;BME280;62152;52.078;8.414;2023-06-10T03:10:46;100243.00;;;21.38;45.52
56514;BME280;62152;52.078;8.414;2023-06-10T03:14:52;100240.25;;;21.38;45.19
56514;BME280;62152;52.078;8.414;2023-06-10T03:18:53;100245.75;;;21.38;45.65
56514;BME280;62152;52.078;8.414;2023-06-10T03:22:54;100250.88;;;21.36;45.93
56514;BME280;62152;52.078;8.414;2023-06-10T03:26:55;100246.94;;;21.37;45.43
56514;BME280;62152;52.078;8.414;2023-06-10T03:30:57;100246.16;;;21.37;45.73
56514;BME280;62152;52.078;8.414;2023-06-10T03:35:00;100246.16;;;21.37;45.17
56514;BME280;62152;52.078;8.414;2023-06-10T03:39:04;100244.19;;;21.37;45.43
56514;BME280;62152;52.078;8.414;2023-06-10T03:43:04;100246.94;;;21.37;45.59
56514;BME280;62152;52.078;8.414;2023-06-10T03:47:07;100250.09;;;21.36;45.47
56514;BME280;62152;52.078;8.414;2023-06-10T03:51:09;100263.88;;;21.36;45.65
56514;BME280;62152;52.078;8.414;2023-06-10T03:55:10;100261.13;;;21.36;45.16
56514;BME280;62152;52.078;8.414;2023-06-10T03:59:11;100257.59;;;21.35;45.25
56514;BME280;62152;52.078;8.414;2023-06-10T04:03:13;100255.63;;;21.36;45.56
56514;BME280;62152;52.078;8.414;2023-06-10T04:07:16;100254.81;;;21.35;45.36
56514;BME280;62152;52.078;8.414;2023-06-10T04:11:17;100254.03;;;21.35;45.88
56514;BME280;62152;52.078;8.414;2023-06-10T04:15:18;100260.34;;;21.35;45.25
56514;BME280;62152;52.078;8.414;2023-06-10T04:19:20;100258.72;;;21.34;45.45
56514;BME280;62152;52.078;8.414;2023-06-10T04:23:21;100269.75;;;21.34;45.25
56514;BME280;62152;52.078;8.414;2023-06-10T04:27:22;100263.47;;;21.34;45.77
56514;BME280;62152;52.078;8.414;2023-06-10T04:31:23;100264.25;;;21.34;45.54
56514;BME280;62152;52.078;8.414;2023-06-10T04:35:28;100267.00;;;21.34;45.31
56514;BME280;62152;52.078;8.414;2023-06-10T04:39:31;100269.75;;;21.34;45.96
56514;BME280;62152;52.078;8.414;2023-06-10T04:43:32;100275.28;;;21.34;45.90
56514;BME280;62152;52.078;8.414;2023-06-10T04:47:35;100275.28;;;21.34;45.71
56514;BME280;62152;52.078;8.414;2023-06-10T04:51:37;100276.47;;;21.33;45.51
56514;BME280;62152;52.078;8.414;2023-06-10T04:55:38;100268.19;;;21.33;45.58
56514;BME280;62152;52.078;8.414;2023-06-10T04:59:39;100268.19;;;21.33;45.32
56514;BME280;62152;52.078;8.414;2023-06-10T05:03:40;100268.97;;;21.34;45.55
56514;BME280;62152;52.078;8.414;2023-06-10T05:07:42;100267.41;;;21.33;45.06
56514;BME280;62152;52.078;8.414;2023-06-10T05:11:43;100269.38;;;21.32;45.67
56514;BME280;62152;52.078;8.414;2023-06-10T05:15:43;100277.66;;;21.32;45.97
56514;BME280;62152;52.078;8.414;2023-06-10T05:19:44;100273.31;;;21.31;45.71
56514;BME280;62152;52.078;8.414;2023-06-10T05:23:46;100278.81;;;21.31;45.86
56514;BME280;62152;52.078;8.414;2023-06-10T05:27:47;100282.38;;;21.32;45.87
56514;BME280;62152;52.078;8.414;2023-06-10T05:31:48;100271.75;;;21.34;45.22
56514;BME280;62152;52.078;8.414;2023-06-10T05:35:49;100274.53;;;21.37;45.60
56514;BME280;62152;52.078;8.414;2023-06-10T05:39:51;100284.38;;;21.38;45.04
56514;BME280;62152;52.078;8.414;2023-06-10T05:43:52;100283.63;;;21.41;45.25
56514;BME280;62152;52.078;8.414;2023-06-10T05:47:53;100280.44;;;21.39;45.54
56514;BME280;62152;52.078;8.414;2023-06-10T05:51:53;100291.91;;;21.41;45.38
56514;BME280;62152;52.078;8.414;2023-06-10T05:55:56;100287.19;;;21.42;45.48
56514;BME280;62152;52.078;8.414;2023-06-10T05:59:57;100292.69;;;21.42;45.52
56514;BME280;62152;52.078;8.414;2023-06-10T06:03:57;100290.34;;;21.44;45.18
56514;BME280;62152;52.078;8.414;2023-06-10T06:07:58;100276.53;;;21.44;45.71
56514;BME280;62152;52.078;8.414;2023-06-10T06:12:00;100278.50;;;21.43;45.24
56514;BME280;62152;52.078;8.414;2023-06-10T06:16:01;100287.97;;;21.46;45.46
56514;BME280;62152;52.078;8.414;2023-06-10T06:20:03;100282.44;;;21.46;45.61
56514;BME280;62152;52.078;8.414;2023-06-10T06:24:04;100284.81;;;21.47;45.67
56514;BME280;62152;52.078;8.414;2023-06-10T06:28:07;100287.97;;;21.46;45.38
56514;BME280;62152;52.078;8.414;2023-06-10T06:32:10;100286.78;;;21.47;45.28
56514;BME280;62152;52.078;8.414;2023-06-10T06:36:11;100279.28;;;21.47;45.48
56514;BME280;62152;52.078;8.414;2023-06-10T06:40:12;100276.53;;;21.47;45.83
56514;BME280;62152;52.078;8.414;2023-06-10T06:44:14;100276.16;;;21.49;45.28
56514;BME280;62152;52.078;8.414;2023-06-10T06:48:18;100282.47;;;21.49;44.99
56514;BME280;62152;52.078;8.414;2023-06-10T06:52:19;100278.94;;;21.49;45.27
56514;BME280;62152;52.078;8.414;2023-06-10T06:56:20;100271.44;;;21.49;45.35
56514;BME280;62152;52.078;8.414;2023-06-10T07:00:22;100278.53;;;21.50;45.34
56514;BME280;62152;52.078;8.414;2023-06-10T07:04:23;100281.28;;;21.50;45.61
56514;BME280;62152;52.078;8.414;2023-06-10T07:08:24;100281.28;;;21.50;45.03
56514;BME280;62152;52.078;8.414;2023-06-10T07:12:24;100288.41;;;21.51;45.13
56514;BME280;62152;52.078;8.414;2023-06-10T07:16:27;100280.13;;;21.51;45.65
56514;BME280;62152;52.078;8.414;2023-06-10T07:20:27;100286.44;;;21.52;45.17
56514;BME280;62152;52.078;8.414;2023-06-10T07:24:28;100291.56;;;21.53;45.47
56514;BME280;62152;52.078;8.414;2023-06-10T07:28:29;100280.13;;;21.51;45.77
56514;BME280;62152;52.078;8.414;2023-06-10T07:32:31;100288.78;;;21.53;45.33
56514;BME280;62152;52.078;8.414;2023-06-10T07:36:32;100291.56;;;21.53;45.42
56514;BME280;62152;52.078;8.414;2023-06-10T07:40:32;100291.56;;;21.53;45.34
56514;BME280;62152;52.078;8.414;2023-06-10T07:44:33;100295.88;;;21.54;45.13
56514;BME280;62152;52.078;8.414;2023-06-10T07:48:35;100284.06;;;21.54;45.62
56514;BME280;62152;52.078;8.414;2023-06-10T07:52:36;100290.38;;;21.54;45.59
56514;BME280;62152;52.078;8.414;2023-06-10T07:56:37;100293.94;;;21.55;45.07
56514;BME280;62152;52.078;8.414;2023-06-10T08:00:38;100289.22;;;21.55;45.50
56514;BME280;62152;52.078;8.414;2023-06-10T08:04:40;100303.00;;;21.55;45.16
56514;BME280;62152;52.078;8.414;2023-06-10T08:08:41;100307.34;;;21.56;45.37
56514;BME280;62152;52.078;8.414;2023-06-10T08:12:41;100299.84;;;21.57;45.76
56514;BME280;62152;52.078;8.414;2023-06-10T08:16:43;100305.38;;;21.57;45.18
56514;BME280;62152;52.078;8.414;2023-06-10T08:20:46;100299.84;;;21.57;45.59
56514;BME280;62152;52.078;8.414;2023-06-10T08:24:46;100303.41;;;21.57;45.54
56514;BME280;62152;52.078;8.414;2023-06-10T08:28:47;100307.75;;;21.58;45.33
56514;BME280;62152;52.078;8.414;2023-06-10T08:32:48;100306.16;;;21.57;45.42
56514;BME280;62152;52.078;8.414;2023-06-10T08:36:50;100295.13;;;21.57;45.03
56514;BME280;62152;52.078;8.414;2023-06-10T08:40:56;100297.50;;;21.59;45.05
56514;BME280;62152;52.078;8.414;2023-06-10T08:45:01;100302.22;;;21.58;45.12
56514;BME280;62152;52.078;8.414;2023-06-10T08:49:06;100301.44;;;21.58;45.74
56514;BME280;62152;52.078;8.414;2023-06-10T08:53:08;100297.50;;;21.59;45.45
56514;BME280;62152;52.078;8.414;2023-06-10T08:57:12;100303.81;;;21.60;45.02
56514;BME280;62152;52.078;8.414;2023-06-10T09:01:13;100303.81;;;21.60;44.86
56514;BME280;62152;52.078;8.414;2023-06-10T09:05:15;100305.38;;;21.61;44.88
56514;BME280;62152;52.078;8.414;2023-06-10T09:09:19;100299.06;;;21.60;45.30
56514;BME280;62152;52.078;8.414;2023-06-10T09:13:20;100299.88;;;21.61;45.49
56514;BME280;62152;52.078;8.414;2023-06-10T09:17:22;100299.88;;;21.61;44.84
56514;BME280;62152;52.078;8.414;2023-06-10T09:21:23;100295.13;;;21.61;44.99
56514;BME280;62152;52.078;8.414;2023-06-10T09:25:36;100300.66;;;21.61;45.33
56514;BME280;62152;52.078;8.414;2023-06-10T09:29:45;100304.19;;;21.62;45.10
56514;BME280;62152;52.078;8.414;2023-06-10T09:33:46;100297.88;;;21.61;45.81
56514;BME280;62152;52.078;8.414;2023-06-10T09:37:51;100304.19;;;21.62;45.13
56514;BME280;62152;52.078;8.414;2023-06-10T09:41:53;100303.84;;;21.63;45.63
56514;BME280;62152;52.078;8.414;2023-06-10T09:45:56;100301.06;;;21.63;45.68
56514;BME280;62152;52.078;8.414;2023-06-10T09:49:57;100301.88;;;21.64;45.63
56514;BME280;62152;52.078;8.414;2023-06-10T09:53:59;100292.00;;;21.63;45.14
56514;BME280;62152;52.078;8.414;2023-06-10T09:58:04;100292.78;;;21.63;45.05
56514;BME280;62152;52.078;8.414;2023-06-10T10:02:05;100296.34;;;21.64;45.45
56514;BME280;62152;52.078;8.414;2023-06-10T10:06:06;100304.63;;;21.64;45.06
56514;BME280;62152;52.078;8.414;2023-06-10T10:10:09;100300.69;;;21.65;45.33
56514;BME280;62152;52.078;8.414;2023-06-10T10:14:13;100295.16;;;21.65;44.88
56514;BME280;62152;52.078;8.414;2023-06-10T10:18:20;100294.38;;;21.64;44.83
56514;BME280;62152;52.078;8.414;2023-06-10T10:22:26;100295.16;;;21.65;45.05
56514;BME280;62152;52.078;8.414;2023-06-10T10:26:29;100298.72;;;21.65;45.35
56514;BME280;62152;52.078;8.414;2023-06-10T10:30:39;100292.78;;;21.67;45.08
56514;BME280;62152;52.078;8.414;2023-06-10T10:34:48;100298.31;;;21.67;44.97
56514;BME280;62152;52.078;8.414;2023-06-10T10:38:54;100298.31;;;21.67;45.01
56514;BME280;62152;52.078;8.414;2023-06-10T10:42:59;100290.81;;;21.67;45.36
56514;BME280;62152;52.078;8.414;2023-06-10T10:47:04;100287.28;;;21.67;45.51
56514;BME280;62152;52.078;8.414;2023-06-10T10:51:08;100287.28;;;21.67;45.45
56514;BME280;62152;52.078;8.414;2023-06-10T10:55:13;100290.03;;;21.67;45.11
56514;BME280;62152;52.078;8.414;2023-06-10T10:59:13;100286.88;;;21.68;45.54
56514;BME280;62152;52.078;8.414;2023-06-10T11:03:16;100279.41;;;21.69;45.39
56514;BME280;62152;52.078;8.414;2023-06-10T11:07:20;100284.94;;;21.69;45.42
56514;BME280;62152;52.078;8.414;2023-06-10T11:11:24;100285.72;;;21.69;45.46
56514;BME280;62152;52.078;8.414;2023-06-10T11:15:28;100276.66;;;21.69;45.50
56514;BME280;62152;52.078;8.414;2023-06-10T11:19:34;100272.28;;;21.68;44.89
56514;BME280;62152;52.078;8.414;2023-06-10T11:23:41;100276.25;;;21.70;45.14
56514;BME280;62152;52.078;8.414;2023-06-10T11:27:42;100271.53;;;21.71;45.20
56514;BME280;62152;52.078;8.414;2023-06-10T11:31:49;100266.00;;;21.71;45.58
56514;BME280;62152;52.078;8.414;2023-06-10T11:35:53;100272.31;;;21.71;45.07
56514;BME280;62152;52.078;8.414;2023-06-10T11:39:55;100270.34;;;21.72;45.03
56514;BME280;62152;52.078;8.414;2023-06-10T11:43:58;100279.41;;;21.72;44.94
56514;BME280;62152;52.078;8.414;2023-06-10T11:48:02;100281.00;;;21.73;45.33
56514;BME280;62152;52.078;8.414;2023-06-10T11:52:06;100271.13;;;21.72;44.98
56514;BME280;62152;52.078;8.414;2023-06-10T11:56:07;100266.41;;;21.73;45.34
56514;BME280;62152;52.078;8.414;2023-06-10T12:00:09;100267.19;;;21.73;45.43
56514;BME280;62152;52.078;8.414;2023-06-10T12:04:14;100262.44;;;21.74;45.18
56514;BME280;62152;52.078;8.414;2023-06-10T12:08:17;100258.50;;;21.75;45.48
56514;BME280;62152;52.078;8.414;2023-06-10T12:12:18;100261.28;;;21.75;44.76
56514;BME280;62152;52.078;8.414;2023-06-10T12:16:19;100260.13;;;21.76;44.89
56514;BME280;62152;52.078;8.414;2023-06-10T12:20:27;100253.78;;;21.75;45.28
56514;BME280;62152;52.078;8.414;2023-06-10T12:24:30;100251.84;;;21.76;45.01
56514;BME280;62152;52.078;8.414;2023-06-10T12:28:31;100247.09;;;21.76;45.44
56514;BME280;62152;52.078;8.414;2023-06-10T12:32:36;100253.41;;;21.77;45.61
56514;BME280;62152;52.078;8.414;2023-06-10T12:36:38;100254.19;;;21.77;45.07
56514;BME280;62152;52.078;8.414;2023-06-10T12:40:41;100250.25;;;21.78;45.16
56514;BME280;62152;52.078;8.414;2023-06-10T12:44:42;100243.94;;;21.78;45.53
56514;BME280;62152;52.078;8.414;2023-06-10T12:48:49;100251.03;;;21.79;45.35
56514;BME280;62152;52.078;8.414;2023-06-10T12:52:50;100253.81;;;21.79;45.24
56514;BME280;62152;52.078;8.414;2023-06-10T12:56:52;100252.63;;;21.80;44.94
56514;BME280;62152;52.078;8.414;2023-06-10T13:00:53;100247.09;;;21.80;45.60
56514;BME280;62152;52.078;8.414;2023-06-10T13:04:54;100252.22;;;21.81;45.27
56514;BME280;62152;52.078;8.414;2023-06-10T13:08:55;100236.06;;;21.80;44.81
56514;BME280;62152;52.078;8.414;2023-06-10T13:12:57;100248.66;;;21.81;45.53
56514;BME280;62152;52.078;8.414;2023-06-10T13:16:58;100239.19;;;21.82;44.85
56514;BME280;62152;52.078;8.414;2023-06-10T13:20:59;100233.69;;;21.82;45.41
56514;BME280;62152;52.078;8.414;2023-06-10T13:25:00;100228.97;;;21.82;45.58
56514;BME280;62152;52.078;8.414;2023-06-10T13:29:02;100222.63;;;21.82;45.55
56514;BME280;62152;52.078;8.414;2023-06-10T13:33:03;100224.25;;;21.83;44.85
56514;BME280;62152;52.078;8.414;2023-06-10T13:37:04;100213.19;;;21.83;45.49
56514;BME280;62152;52.078;8.414;2023-06-10T13:41:05;100210.81;;;21.85;45.21
56514;BME280;62152;52.078;8.414;2023-06-10T13:45:08;100211.63;;;21.85;45.41
56514;BME280;62152;52.078;8.414;2023-06-10T13:49:09;100204.13;;;21.86;44.97
56514;BME280;62152;52.078;8.414;2023-06-10T13:53:10;100191.91;;;21.87;45.02
56514;BME280;62152;52.078;8.414;2023-06-10T13:57:10;100192.69;;;21.88;45.26
56514;BME280;62152;52.078;8.414;2023-06-10T14:01:12;100187.94;;;21.88;44.76
56514;BME280;62152;52.078;8.414;2023-06-10T14:05:13;100185.97;;;21.89;45.41
56514;BME280;62152;52.078;8.414;2023-06-10T14:09:14;100185.59;;;21.90;45.11
56514;BME280;62152;52.078;8.414;2023-06-10T14:13:15;100191.13;;;21.90;45.26
56514;BME280;62152;52.078;8.414;2023-06-10T14:17:17;100178.09;;;21.91;45.29
56514;BME280;62152;52.078;8.414;2023-06-10T14:21:18;100183.22;;;21.92;44.95
56514;BME280;62152;52.078;8.414;2023-06-10T14:25:19;100176.53;;;21.93;45.35
56514;BME280;62152;52.078;8.414;2023-06-10T14:29:20;100179.66;;;21.95;45.09
56514;BME280;62152;52.078;8.414;2023-06-10T14:33:22;100175.34;;;21.98;44.67
56514;BME280;62152;52.078;8.414;2023-06-10T14:37:23;100170.22;;;22.00;44.63
56514;BME280;62152;52.078;8.414;2023-06-10T14:41:24;100175.34;;;22.01;45.24
56514;BME280;62152;52.078;8.414;2023-06-10T14:45:25;100173.00;;;22.03;44.96
56514;BME280;62152;52.078;8.414;2023-06-10T14:49:27;100176.94;;;22.06;45.14
56514;BME280;62152;52.078;8.414;2023-06-10T14:53:28;100169.84;;;22.08;44.54
56514;BME280;62152;52.078;8.414;2023-06-10T14:57:29;100173.03;;;22.10;44.57
56514;BME280;62152;52.078;8.414;2023-06-10T15:01:30;100179.31;;;22.15;44.56
56514;BME280;62152;52.078;8.414;2023-06-10T15:05:32;100153.28;;;22.16;44.42
56514;BME280;62152;52.078;8.414;2023-06-10T15:09:33;100159.59;;;22.20;44.53
56514;BME280;62152;52.078;8.414;2023-06-10T15:13:34;100155.25;;;22.22;44.35
56514;BME280;62152;52.078;8.414;2023-06-10T15:17:34;100149.75;;;22.26;44.72
56514;BME280;62152;52.078;8.414;2023-06-10T15:21:37;100139.47;;;22.30;44.58
56514;BME280;62152;52.078;8.414;2023-06-10T15:25:37;100145.78;;;22.34;44.08
56514;BME280;62152;52.078;8.414;2023-06-10T15:29:38;100141.84;;;22.38;44.50
56514;BME280;62152;52.078;8.414;2023-06-10T15:33:39;100137.88;;;22.39;44.51
56514;BME280;62152;52.078;8.414;2023-06-10T15:37:41;100135.09;;;22.43;44.44
56514;BME280;62152;52.078;8.414;2023-06-10T15:41:42;100128.78;;;22.46;43.93
56514;BME280;62152;52.078;8.414;2023-06-10T15:45:43;100124.81;;;22.51;44.06
56514;BME280;62152;52.078;8.414;2023-06-10T15:49:43;100118.09;;;22.55;44.32
56514;BME280;62152;52.078;8.414;2023-06-10T15:53:46;100126.41;;;22.59;43.86
56514;BME280;62152;52.078;8.414;2023-06-10T15:57:46;100125.19;;;22.63;43.77
56514;BME280;62152;52.078;8.414;2023-06-10T16:01:47;100119.66;;;22.67;43.95
56514;BME280;62152;52.078;8.414;2023-06-10T16:05:48;100121.25;;;22.72;43.59
56514;BME280;62152;52.078;8.414;2023-06-10T16:09:50;100130.31;;;22.76;43.39
56514;BME280;62152;52.078;8.414;2023-06-10T16:13:51;100131.47;;;22.82;43.59
56514;BME280;62152;52.078;8.414;2023-06-10T16:17:51;100121.56;;;22.84;43.33
56514;BME280;62152;52.078;8.414;2023-06-10T16:21:52;100127.88;;;22.85;43.78
56514;BME280;62152;52.078;8.414;2023-06-10T16:25:55;100121.97;;;22.90;43.30
56514;BME280;62152;52.078;8.414;2023-06-10T16:29:55;100120.00;;;22.90;43.19
56514;BME280;62152;52.078;8.414;2023-06-10T16:33:56;100122.78;;;22.94;43.52
56514;BME280;62152;52.078;8.414;2023-06-10T16:37:57;100121.97;;;22.97;43.01
56514;BME280;62152;52.078;8.414;2023-06-10T16:41:59;100117.63;;;23.00;42.92
56514;BME280;62152;52.078;8.414;2023-06-10T16:46:00;100116.03;;;23.02;43.68
56514;BME280;62152;52.078;8.414;2023-06-10T16:50:01;100113.63;;;23.04;43.28
56514;BME280;62152;52.078;8.414;2023-06-10T16:54:02;100119.94;;;23.05;42.97
56514;BME280;62152;52.078;8.414;2023-06-10T16:58:04;100116.78;;;23.10;42.87
56514;BME280;62152;52.078;8.414;2023-06-10T17:02:05;100124.66;;;23.11;43.54
56514;BME280;62152;52.078;8.414;2023-06-10T17:06:06;100114.38;;;23.12;42.88
56514;BME280;62152;52.078;8.414;2023-06-10T17:10:07;100123.88;;;23.14;43.35
56514;BME280;62152;52.078;8.414;2023-06-10T17:14:10;100125.81;;;23.17;42.72
56514;BME280;62152;52.078;8.414;2023-06-10T17:18:11;100116.75;;;23.17;42.76
56514;BME280;62152;52.078;8.414;2023-06-10T17:22:12;100121.88;;;23.18;43.01
56514;BME280;62152;52.078;8.414;2023-06-10T17:26:13;100121.47;;;23.20;43.22
56514;BME280;62152;52.078;8.414;2023-06-10T17:30:16;100132.13;;;23.22;43.15
56514;BME280;62152;52.078;8.414;2023-06-10T17:34:17;100132.13;;;23.22;42.80
56514;BME280;62152;52.078;8.414;2023-06-10T17:38:18;100137.69;;;23.22;42.65
56514;BME280;62152;52.078;8.414;2023-06-10T17:42:19;100131.72;;;23.23;42.87
56514;BME280;62152;52.078;8.414;2023-06-10T17:46:21;100129.75;;;23.24;42.72
56514;BME280;62152;52.078;8.414;2023-06-10T17:50:22;100128.59;;;23.21;42.87
56514;BME280;62152;52.078;8.414;2023-06-10T17:54:23;100130.22;;;23.08;43.39
56514;BME280;62152;52.078;8.414;2023-06-10T17:58:24;100139.78;;;22.92;43.83
56514;BME280;62152;52.078;8.414;2023-06-10T18:02:29;100137.00;;;22.82;43.99
56514;BME280;62152;52.078;8.414;2023-06-10T18:06:29;100145.69;;;22.77;43.96
56514;BME280;62152;52.078;8.414;2023-06-10T18:10:30;100146.13;;;22.72;44.24
56514;BME280;62152;52.078;8.414;2023-06-10T18:14:31;100145.72;;;22.70;44.17
56514;BME280;62152;52.078;8.414;2023-06-10T18:18:33;100149.28;;;22.66;44.23
56514;BME280;62152;52.078;8.414;2023-06-10T18:22:34;100147.31;;;22.63;44.42
56514;BME280;62152;52.078;8.414;2023-06-10T18:26:35;100139.03;;;22.60;44.37
56514;BME280;62152;52.078;8.414;2023-06-10T18:30:36;100146.13;;;22.57;44.34
56514;BME280;62152;52.078;8.414;2023-06-10T18:34:38;100148.50;;;22.55;44.29
56514;BME280;62152;52.078;8.414;2023-06-10T18:38:39;100153.66;;;22.53;44.22
56514;BME280;62152;52.078;8.414;2023-06-10T18:42:40;100146.16;;;22.50;44.32
56514;BME280;62152;52.078;8.414;2023-06-10T18:46:41;100154.84;;;22.49;44.88
56514;BME280;62152;52.078;8.414;2023-06-10T18:50:43;100158.00;;;22.47;44.31
56514;BME280;62152;52.078;8.414;2023-06-10T18:54:44;100163.53;;;22.44;44.42
56514;BME280;62152;52.078;8.414;2023-06-10T18:58:45;100155.63;;;22.42;44.67
56514;BME280;62152;52.078;8.414;2023-06-10T19:02:45;100166.31;;;22.40;44.86
56514;BME280;62152;52.078;8.414;2023-06-10T19:06:48;100159.22;;;22.39;44.95
56514;BME280;62152;52.078;8.414;2023-06-10T19:10:49;100167.09;;;22.37;44.86
56514;BME280;62152;52.078;8.414;2023-06-10T19:14:49;100171.44;;;22.34;44.45
56514;BME280;62152;52.078;8.414;2023-06-10T19:18:50;100188.41;;;22.33;45.10
56514;BME280;62152;52.078;8.414;2023-06-10T19:22:53;100193.94;;;22.33;44.68
56514;BME280;62152;52.078;8.414;2023-06-10T19:26:53;100197.47;;;22.30;44.91
56514;BME280;62152;52.078;8.414;2023-06-10T19:30:54;100210.91;;;22.28;44.98
56514;BME280;62152;52.078;8.414;2023-06-10T19:34:55;100203.03;;;22.26;44.56
56514;BME280;62152;52.078;8.414;2023-06-10T19:38:57;100211.72;;;22.25;44.57
56514;BME280;62152;52.078;8.414;2023-06-10T19:42:58;100218.03;;;22.25;44.66
56514;BME280;62152;52.078;8.414;2023-06-10T19:47:00;100214.06;;;22.23;44.74
56514;BME280;62152;52.078;8.414;2023-06-10T19:51:01;100212.47;;;22.22;44.95
56514;BME280;62152;52.078;8.414;2023-06-10T19:55:03;100214.84;;;22.20;44.80
56514;BME280;62152;52.078;8.414;2023-06-10T19:59:04;100222.75;;;22.18;44.80
56514;BME280;62152;52.078;8.414;2023-06-10T20:03:05;100226.72;;;22.17;45.20
56514;BME280;62152;52.078;8.414;2023-06-10T20:07:06;100223.94;;;22.17;45.01
56514;BME280;62152;52.078;8.414;2023-06-10T20:11:08;100229.84;;;22.15;45.39
56514;BME280;62152;52.078;8.414;2023-06-10T20:15:09;100229.44;;;22.13;44.82
56514;BME280;62152;52.078;8.414;2023-06-10T20:19:10;100235.38;;;22.11;45.24
56514;BME280;62152;52.078;8.414;2023-06-10T20:23:11;100238.91;;;22.12;44.83
56514;BME280;62152;52.078;8.414;2023-06-10T20:27:14;100240.09;;;22.11;45.03
56514;BME280;62152;52.078;8.414;2023-06-10T20:31:15;100243.25;;;22.09;44.98
56514;BME280;62152;52.078;8.414;2023-06-10T20:35:15;100237.72;;;22.09;45.01
56514;BME280;62152;52.078;8.414;2023-06-10T20:39:16;100251.53;;;22.09;45.47
56514;BME280;62152;52.078;8.414;2023-06-10T20:43:18;100265.34;;;22.09;45.27
56514;BME280;62152;52.078;8.414;2023-06-10T20:47:19;100256.63;;;22.07;45.00
56514;BME280;62152;52.078;8.414;2023-06-10T20:51:20;100260.56;;;22.06;44.98
56514;BME280;62152;52.078;8.414;2023-06-10T20:55:21;100266.09;;;22.06;45.07
56514;BME280;62152;52.078;8.414;2023-06-10T20:59:23;100270.84;;;22.06;44.77
56514;BME280;62152;52.078;8.414;2023-06-10T21:03:24;100272.41;;;22.03;45.50